Time;durP1;ratioP1;P1;durP2;ratioP2;P2;SDS_P1;SDS_P2;PMS_P1;PMS_P2;Temp;Humidity;BMP_temperature;BMP_pressure;BME280_temperature;BME280_humidity;BME280_pressure;Samples;Min_cycle;Max_cycle;Signal;HPM_P1;HPM_P2
2023/04/22 00:01:47;;;;;;;6.78;4.95;;;8.60;99.90;;;;;;5024205;28;20061;-84
2023/04/22 00:04:13;;;;;;;7.32;4.93;;;8.50;99.90;;;;;;5020084;28;20025;-85
2023/04/22 00:06:40;;;;;;;8.63;5.32;;;8.50;99.90;;;;;;5016653;28;20117;-86
2023/04/22 00:09:05;;;;;;;6.65;4.70;;;8.50;99.90;;;;;;5017047;28;20541;-86
2023/04/22 00:11:31;;;;;;;7.13;4.72;;;8.50;99.90;;;;;;5017543;28;20474;-85
2023/04/22 00:13:57;;;;;;;7.38;5.25;;;8.40;99.90;;;;;;5016328;28;20045;-86
2023/04/22 00:16:25;;;;;;;6.82;4.88;;;8.50;99.90;;;;;;5016942;28;20034;-86
2023/04/22 00:18:50;;;;;;;7.22;4.85;;;8.40;99.90;;;;;;5015027;28;20075;-86
2023/04/22 00:21:16;;;;;;;6.00;4.75;;;8.40;99.90;;;;;;5018533;28;20112;-86
2023/04/22 00:23:44;;;;;;;8.02;5.05;;;8.30;99.90;;;;;;5018154;28;20583;-86
2023/04/22 00:26:10;;;;;;;6.60;5.00;;;8.30;99.90;;;;;;5019633;28;20223;-85
2023/04/22 00:28:35;;;;;;;7.18;5.18;;;8.30;99.90;;;;;;5016331;28;20114;-85
2023/04/22 00:31:02;;;;;;;7.43;5.55;;;8.20;99.90;;;;;;5002941;28;20879;-86
2023/04/22 00:33:28;;;;;;;6.60;5.25;;;8.30;99.90;;;;;;5015314;28;20513;-85
2023/04/22 00:35:53;;;;;;;6.45;5.03;;;8.20;99.90;;;;;;5015711;28;20035;-86
2023/04/22 00:38:19;;;;;;;6.68;5.10;;;8.20;99.90;;;;;;5016433;28;20026;-86
2023/04/22 00:40:48;;;;;;;7.45;5.70;;;8.10;99.90;;;;;;5015776;28;20436;-86
2023/04/22 00:43:16;;;;;;;6.07;4.70;;;8.20;99.90;;;;;;5016901;28;20144;-86
2023/04/22 00:45:42;;;;;;;7.10;5.10;;;8.10;99.90;;;;;;5016973;28;20104;-85
2023/04/22 00:48:08;;;;;;;6.78;5.38;;;8.10;99.90;;;;;;5016153;28;20025;-85
2023/04/22 00:50:34;;;;;;;6.35;5.10;;;8.10;99.90;;;;;;5019685;28;20141;-85
2023/04/22 00:53:00;;;;;;;7.13;5.30;;;8.10;99.90;;;;;;5019943;28;20148;-85
2023/04/22 00:55:26;;;;;;;7.53;5.72;;;8.10;99.90;;;;;;5020100;28;20129;-85
2023/04/22 00:57:54;;;;;;;5.95;4.55;;;8.00;99.90;;;;;;5019923;28;20098;-85
2023/04/22 01:00:25;;;;;;;7.22;5.10;;;8.00;99.90;;;;;;5023308;28;20057;-86
2023/04/22 01:02:55;;;;;;;7.55;5.32;;;8.00;99.90;;;;;;5018093;28;20261;-85
2023/04/22 01:05:22;;;;;;;7.55;5.22;;;8.00;99.90;;;;;;5019411;28;20042;-85
2023/04/22 01:07:50;;;;;;;6.88;5.15;;;8.00;99.90;;;;;;5019701;28;20037;-85
2023/04/22 01:10:17;;;;;;;7.38;5.20;;;8.00;99.90;;;;;;5006576;28;20018;-87
2023/04/22 01:12:43;;;;;;;6.43;4.70;;;8.00;99.90;;;;;;5019405;28;20118;-85
2023/04/22 01:15:09;;;;;;;6.72;5.05;;;7.90;99.90;;;;;;5004291;28;20510;-85
2023/04/22 01:17:35;;;;;;;6.47;4.78;;;7.90;99.90;;;;;;5022378;28;20025;-85
2023/04/22 01:20:03;;;;;;;7.35;5.50;;;7.90;99.90;;;;;;5022995;28;20033;-86
2023/04/22 01:22:34;;;;;;;6.32;4.78;;;7.90;99.90;;;;;;5021262;28;20027;-85
2023/04/22 01:25:01;;;;;;;6.35;5.00;;;7.80;99.90;;;;;;5020395;28;20050;-85
2023/04/22 01:27:27;;;;;;;7.00;4.57;;;7.80;99.90;;;;;;5022614;28;20108;-85
2023/04/22 01:29:54;;;;;;;5.82;4.55;;;7.80;99.90;;;;;;5017910;28;20467;-85
2023/04/22 01:32:20;;;;;;;6.35;4.75;;;7.80;99.90;;;;;;5021131;28;20087;-85
2023/04/22 01:34:46;;;;;;;6.40;5.10;;;7.70;99.90;;;;;;5019739;28;20478;-85
2023/04/22 01:37:12;;;;;;;6.10;4.93;;;7.70;99.90;;;;;;5021084;28;20030;-85
2023/04/22 01:39:38;;;;;;;5.80;4.25;;;7.60;99.90;;;;;;5018995;28;20513;-86
2023/04/22 01:42:04;;;;;;;6.75;5.20;;;7.60;99.90;;;;;;5022254;28;20026;-85
2023/04/22 01:44:30;;;;;;;5.93;4.40;;;7.60;99.90;;;;;;5022892;28;20034;-86
2023/04/22 01:46:55;;;;;;;6.32;4.55;;;7.60;99.90;;;;;;5027221;28;20046;-86
2023/04/22 01:49:21;;;;;;;6.60;4.60;;;7.60;99.90;;;;;;5023074;28;20497;-84
2023/04/22 01:51:47;;;;;;;6.70;5.00;;;7.60;99.90;;;;;;5023615;28;20105;-86
2023/04/22 01:54:13;;;;;;;7.05;4.93;;;7.60;99.90;;;;;;5025095;28;20091;-85
2023/04/22 01:56:39;;;;;;;6.35;5.05;;;7.60;99.90;;;;;;5021208;28;20054;-85
2023/04/22 01:59:06;;;;;;;6.63;4.93;;;7.60;99.90;;;;;;5024824;28;20057;-85
2023/04/22 02:01:36;;;;;;;6.28;4.70;;;7.60;99.90;;;;;;5026050;28;20036;-85
2023/04/22 02:04:01;;;;;;;6.65;4.93;;;7.70;99.90;;;;;;5027239;28;20466;-86
2023/04/22 02:06:27;;;;;;;6.82;5.07;;;7.70;99.90;;;;;;5021634;28;20042;-86
2023/04/22 02:08:52;;;;;;;6.70;5.35;;;7.70;99.90;;;;;;5026023;28;20062;-85
2023/04/22 02:11:20;;;;;;;7.15;5.60;;;7.80;99.90;;;;;;5024757;28;20108;-86
2023/04/22 02:13:45;;;;;;;7.50;5.65;;;7.70;99.90;;;;;;5028428;28;20040;-87
2023/04/22 02:16:12;;;;;;;7.68;5.38;;;7.70;99.90;;;;;;5025082;28;20041;-85
2023/04/22 02:18:38;;;;;;;7.75;5.38;;;7.80;99.90;;;;;;5027280;28;20109;-85
2023/04/22 02:21:03;;;;;;;7.72;5.65;;;7.70;99.90;;;;;;5023213;28;20116;-86
2023/04/22 02:23:29;;;;;;;7.05;5.70;;;7.80;99.90;;;;;;5022774;28;20480;-85
2023/04/22 02:25:57;;;;;;;6.63;5.53;;;7.70;99.90;;;;;;5024875;28;20053;-85
2023/04/22 02:28:23;;;;;;;7.65;5.72;;;7.70;99.90;;;;;;5025963;28;20040;-84
2023/04/22 02:30:48;;;;;;;8.57;6.38;;;7.70;99.90;;;;;;5020847;28;20029;-84
2023/04/22 02:33:14;;;;;;;9.02;6.18;;;7.80;99.90;;;;;;5016587;28;20077;-84
2023/04/22 02:35:40;;;;;;;7.82;6.18;;;7.80;99.90;;;;;;5019428;28;20562;-85
2023/04/22 02:38:07;;;;;;;8.52;6.30;;;7.80;99.90;;;;;;5019285;28;20025;-85
2023/04/22 02:40:32;;;;;;;9.43;7.03;;;7.80;99.90;;;;;;5018720;28;20148;-85
2023/04/22 02:42:58;;;;;;;8.55;6.68;;;7.90;99.90;;;;;;5020120;28;20049;-84
2023/04/22 02:45:23;;;;;;;10.13;7.95;;;7.90;99.90;;;;;;5016460;28;20037;-85
2023/04/22 02:47:49;;;;;;;11.13;8.23;;;7.90;99.90;;;;;;5017091;28;20037;-85
2023/04/22 02:50:15;;;;;;;10.65;8.00;;;7.90;99.90;;;;;;5023360;28;20032;-86
2023/04/22 02:52:41;;;;;;;10.05;7.30;;;8.00;99.90;;;;;;5022953;28;20025;-85
2023/04/22 02:55:09;;;;;;;11.50;8.88;;;8.00;99.90;;;;;;5025702;28;20021;-84
2023/04/22 02:57:35;;;;;;;9.95;7.80;;;8.00;99.90;;;;;;5019851;28;20556;-84
2023/04/22 03:00:01;;;;;;;11.07;8.23;;;8.00;99.90;;;;;;5023646;28;20029;-85
2023/04/22 03:02:26;;;;;;;10.90;8.52;;;8.10;99.90;;;;;;5017434;28;20064;-85
2023/04/22 03:04:53;;;;;;;11.88;7.90;;;8.10;99.90;;;;;;5021855;28;20470;-84
2023/04/22 03:07:18;;;;;;;10.40;8.52;;;8.10;99.90;;;;;;5019314;28;20022;-86
2023/04/22 03:09:44;;;;;;;10.48;7.75;;;8.10;99.90;;;;;;5024174;28;20025;-84
2023/04/22 03:12:10;;;;;;;10.95;8.32;;;8.20;99.90;;;;;;5022074;28;20363;-84
2023/04/22 03:14:35;;;;;;;10.43;8.35;;;8.20;99.90;;;;;;5024822;28;20088;-85
2023/04/22 03:17:01;;;;;;;10.60;8.25;;;8.20;99.90;;;;;;5026173;28;20061;-85
2023/04/22 03:19:27;;;;;;;10.60;8.25;;;8.20;99.90;;;;;;5022011;28;20032;-85
2023/04/22 03:21:52;;;;;;;10.38;8.35;;;8.20;99.90;;;;;;5011159;28;20507;-85
2023/04/22 03:24:18;;;;;;;10.68;8.32;;;8.20;99.90;;;;;;5018594;28;20026;-85
2023/04/22 03:26:43;;;;;;;9.75;7.40;;;8.20;99.90;;;;;;5004758;28;20394;-85
2023/04/22 03:29:09;;;;;;;12.35;8.68;;;8.20;99.90;;;;;;5024897;28;20083;-85
2023/04/22 03:31:36;;;;;;;11.02;8.07;;;8.20;99.90;;;;;;5023640;28;20202;-85
2023/04/22 03:34:02;;;;;;;11.50;8.60;;;8.20;99.90;;;;;;5020381;28;20412;-86
2023/04/22 03:36:27;;;;;;;12.50;9.75;;;8.20;99.90;;;;;;5024077;28;20067;-84
2023/04/22 03:38:53;;;;;;;12.00;9.60;;;8.30;99.90;;;;;;5023249;28;20083;-85
2023/04/22 03:41:18;;;;;;;11.60;9.50;;;8.30;99.90;;;;;;5020628;28;20057;-85
2023/04/22 03:43:47;;;;;;;12.52;10.00;;;8.30;99.90;;;;;;5023086;28;20490;-86
2023/04/22 03:46:13;;;;;;;12.45;9.77;;;8.30;99.90;;;;;;5022988;28;20090;-84
2023/04/22 03:48:38;;;;;;;11.45;8.98;;;8.30;99.90;;;;;;5019894;28;20033;-84
2023/04/22 03:51:04;;;;;;;12.85;9.88;;;8.30;99.90;;;;;;5019923;28;20135;-85
2023/04/22 03:53:31;;;;;;;12.68;9.98;;;8.30;99.90;;;;;;5024699;28;20052;-84
2023/04/22 03:55:57;;;;;;;14.07;10.98;;;8.30;99.90;;;;;;5021179;28;20414;-84
2023/04/22 03:58:23;;;;;;;13.68;11.25;;;8.30;99.90;;;;;;5036078;28;20029;-84
2023/04/22 04:00:49;;;;;;;13.93;10.82;;;8.30;99.90;;;;;;5022418;28;20470;-84
2023/04/22 04:03:14;;;;;;;14.77;11.32;;;8.30;99.90;;;;;;5023347;28;20025;-84
2023/04/22 04:05:43;;;;;;;14.57;10.85;;;8.30;99.90;;;;;;5009094;28;20474;-84
2023/04/22 04:08:09;;;;;;;14.70;11.15;;;8.40;99.90;;;;;;5021130;28;20069;-85
2023/04/22 04:10:36;;;;;;;14.75;11.15;;;8.40;99.90;;;;;;5020862;28;20860;-85
2023/04/22 04:13:01;;;;;;;14.82;11.70;;;8.30;99.90;;;;;;5022690;28;20734;-85
2023/04/22 04:15:27;;;;;;;14.93;11.88;;;8.30;99.90;;;;;;5022712;28;20034;-84
2023/04/22 04:17:54;;;;;;;13.82;11.48;;;8.30;99.90;;;;;;5025261;28;20033;-83
2023/04/22 04:20:20;;;;;;;14.38;12.07;;;8.30;99.90;;;;;;5022384;28;20029;-84
2023/04/22 04:22:47;;;;;;;14.88;11.73;;;8.30;99.90;;;;;;5006604;28;20091;-85
2023/04/22 04:25:13;;;;;;;14.10;11.25;;;8.30;99.90;;;;;;5020587;28;20453;-84
2023/04/22 04:27:40;;;;;;;14.85;11.82;;;8.30;99.90;;;;;;5016500;28;20046;-84
2023/04/22 04:30:06;;;;;;;15.95;12.07;;;8.40;99.90;;;;;;5022420;28;20036;-84
2023/04/22 04:32:35;;;;;;;15.20;11.07;;;8.30;99.90;;;;;;5022949;28;20569;-86
2023/04/22 04:35:02;;;;;;;14.73;11.30;;;8.30;99.90;;;;;;5022675;28;20112;-85
2023/04/22 04:37:29;;;;;;;13.07;10.40;;;8.40;99.90;;;;;;5020219;28;20049;-86
2023/04/22 04:39:58;;;;;;;14.75;11.27;;;8.40;99.90;;;;;;5021314;28;22393;-84
2023/04/22 04:42:23;;;;;;;16.00;12.07;;;8.30;99.90;;;;;;5018568;28;20028;-86
2023/04/22 04:44:50;;;;;;;14.48;11.50;;;8.40;99.90;;;;;;5002275;28;20432;-85
2023/04/22 04:47:17;;;;;;;14.18;10.98;;;8.40;99.90;;;;;;5019521;28;20021;-85
2023/04/22 04:49:44;;;;;;;16.00;12.13;;;8.40;99.90;;;;;;5020946;28;20101;-85
2023/04/22 04:52:10;;;;;;;15.63;11.80;;;8.40;99.90;;;;;;5022800;28;21145;-84
2023/04/22 04:54:36;;;;;;;17.33;11.80;;;8.40;99.90;;;;;;5003182;28;20039;-85
2023/04/22 04:57:02;;;;;;;14.00;11.10;;;8.50;99.90;;;;;;5018229;28;20037;-85
2023/04/22 04:59:27;;;;;;;15.13;11.23;;;8.50;99.90;;;;;;5017131;28;20113;-84
2023/04/22 05:01:55;;;;;;;13.82;10.93;;;8.50;99.90;;;;;;5022820;28;20465;-84
2023/04/22 05:04:23;;;;;;;15.27;12.07;;;8.50;99.90;;;;;;5021886;28;20065;-84
2023/04/22 05:06:50;;;;;;;16.02;11.50;;;8.60;99.90;;;;;;5016893;28;20129;-85
2023/04/22 05:09:16;;;;;;;15.50;11.98;;;8.50;99.90;;;;;;5003375;28;20497;-86
2023/04/22 05:11:41;;;;;;;16.30;12.43;;;8.60;99.90;;;;;;5019187;28;20157;-84
2023/04/22 05:14:07;;;;;;;14.88;12.20;;;8.60;99.90;;;;;;5020131;28;20048;-84
2023/04/22 05:16:33;;;;;;;17.13;13.07;;;8.60;99.90;;;;;;5016121;28;20478;-85
2023/04/22 05:19:00;;;;;;;14.50;11.93;;;8.60;99.90;;;;;;5016613;28;20518;-84
2023/04/22 05:21:26;;;;;;;16.30;12.43;;;8.60;99.90;;;;;;5017431;28;20017;-84
2023/04/22 05:23:53;;;;;;;16.90;12.93;;;8.70;99.90;;;;;;5015348;28;20033;-84
2023/04/22 05:26:22;;;;;;;16.40;12.30;;;8.70;99.90;;;;;;5017405;28;20045;-84
2023/04/22 05:28:47;;;;;;;17.40;13.05;;;8.70;99.90;;;;;;5017187;28;20381;-83
2023/04/22 05:31:14;;;;;;;15.82;12.30;;;8.70;99.90;;;;;;5020814;28;20026;-84
2023/04/22 05:33:40;;;;;;;16.25;12.32;;;8.70;99.90;;;;;;5017975;28;20033;-84
2023/04/22 05:36:06;;;;;;;16.67;12.80;;;8.70;99.90;;;;;;5019315;28;20042;-84
2023/04/22 05:38:31;;;;;;;16.67;13.05;;;8.70;99.90;;;;;;5019912;28;20033;-85
2023/04/22 05:40:57;;;;;;;18.88;13.48;;;8.80;99.90;;;;;;5019449;28;20057;-84
2023/04/22 05:43:22;;;;;;;18.45;13.77;;;8.80;99.90;;;;;;5029624;28;20040;-85
2023/04/22 05:45:49;;;;;;;19.00;13.30;;;8.80;99.90;;;;;;5014782;28;20049;-85
2023/04/22 05:48:15;;;;;;;17.05;12.88;;;8.90;99.90;;;;;;5014148;28;20164;-87
2023/04/22 05:50:40;;;;;;;18.85;13.20;;;8.90;99.90;;;;;;5004234;28;20124;-84
2023/04/22 05:53:06;;;;;;;15.95;12.98;;;8.90;99.90;;;;;;5019814;28;20042;-84
2023/04/22 05:55:32;;;;;;;17.42;12.02;;;9.00;99.90;;;;;;5020439;28;20033;-85
2023/04/22 05:57:57;;;;;;;17.25;12.10;;;9.00;99.90;;;;;;5019697;28;20026;-85
2023/04/22 06:00:23;;;;;;;16.40;12.60;;;9.10;99.90;;;;;;5017928;28;20112;-85
2023/04/22 06:02:48;;;;;;;16.02;12.57;;;9.10;99.90;;;;;;5005049;28;20018;-85
2023/04/22 06:05:14;;;;;;;17.05;13.20;;;9.20;99.90;;;;;;5019054;28;20059;-85
2023/04/22 06:07:40;;;;;;;15.55;12.23;;;9.20;99.90;;;;;;5019866;28;20017;-85
2023/04/22 06:10:09;;;;;;;16.75;12.63;;;9.20;99.90;;;;;;5023719;28;20026;-85
2023/04/22 06:12:34;;;;;;;17.80;13.35;;;9.30;99.90;;;;;;5000628;28;20381;-84
2023/04/22 06:15:00;;;;;;;16.10;12.73;;;9.30;99.90;;;;;;5019192;28;20041;-86
2023/04/22 06:17:26;;;;;;;16.30;11.75;;;9.40;99.90;;;;;;4989518;28;20363;-85
2023/04/22 06:19:55;;;;;;;16.00;11.73;;;9.40;99.90;;;;;;5019669;28;20029;-85
2023/04/22 06:22:20;;;;;;;16.17;13.00;;;9.50;99.90;;;;;;5018395;28;20022;-85
2023/04/22 06:24:46;;;;;;;18.83;13.18;;;9.50;99.90;;;;;;5017923;28;20128;-85
2023/04/22 06:27:14;;;;;;;18.92;12.90;;;9.50;99.90;;;;;;5020183;28;20400;-85
2023/04/22 06:29:43;;;;;;;17.27;13.85;;;9.50;99.90;;;;;;5018218;28;20025;-86
2023/04/22 06:32:12;;;;;;;15.90;12.40;;;9.50;99.90;;;;;;5022361;28;20165;-85
2023/04/22 06:34:39;;;;;;;17.55;12.73;;;9.40;99.90;;;;;;5026105;28;20044;-86
2023/04/22 06:37:05;;;;;;;18.42;13.65;;;9.40;99.90;;;;;;5026592;28;20381;-86
2023/04/22 06:39:31;;;;;;;17.08;13.18;;;9.40;99.90;;;;;;5025406;28;20470;-85
2023/04/22 06:42:01;;;;;;;17.77;13.15;;;9.30;99.90;;;;;;5021092;28;20108;-85
2023/04/22 06:44:28;;;;;;;16.55;12.75;;;9.30;99.90;;;;;;5008867;28;20467;-86
2023/04/22 06:46:54;;;;;;;16.35;12.57;;;9.40;99.90;;;;;;5027051;28;20057;-85
2023/04/22 06:49:20;;;;;;;18.38;13.98;;;9.40;99.90;;;;;;5018123;28;20065;-85
2023/04/22 06:52:07;;;;;;;17.42;13.50;;;9.50;99.90;;;;;;5019923;28;20111;-85
2023/04/22 06:54:33;;;;;;;19.77;14.75;;;9.50;99.90;;;;;;5017605;28;20041;-85
2023/04/22 06:56:59;;;;;;;18.42;14.85;;;9.60;99.90;;;;;;5021296;28;20034;-85
2023/04/22 06:59:24;;;;;;;20.13;14.43;;;9.70;99.90;;;;;;5018080;28;20119;-84
2023/04/22 07:01:50;;;;;;;19.00;13.82;;;9.80;99.90;;;;;;5021976;28;20033;-84
2023/04/22 07:04:17;;;;;;;16.38;12.52;;;9.90;99.90;;;;;;5021801;28;20029;-85
2023/04/22 07:06:44;;;;;;;17.85;13.52;;;9.90;99.90;;;;;;5019961;28;20387;-85
2023/04/22 07:09:11;;;;;;;20.33;13.95;;;10.00;99.90;;;;;;5020952;28;20966;-84
2023/04/22 07:11:36;;;;;;;16.20;13.20;;;10.00;99.90;;;;;;5000749;28;20095;-85
2023/04/22 07:14:02;;;;;;;21.55;16.27;;;10.20;99.90;;;;;;5020280;28;20034;-84
2023/04/22 07:16:29;;;;;;;20.95;16.08;;;10.20;99.90;;;;;;5016787;28;20037;-85
2023/04/22 07:18:55;;;;;;;21.35;16.23;;;10.30;99.90;;;;;;5024394;28;20033;-85
2023/04/22 07:21:20;;;;;;;20.10;16.23;;;10.40;99.90;;;;;;5023026;28;20041;-85
2023/04/22 07:23:49;;;;;;;21.88;15.82;;;10.50;99.90;;;;;;5022816;28;20090;-85
2023/04/22 07:26:15;;;;;;;23.13;17.75;;;10.70;99.90;;;;;;5017886;28;20042;-85
2023/04/22 07:28:41;;;;;;;24.48;18.38;;;10.90;99.90;;;;;;5020737;28;20471;-86
2023/04/22 07:31:07;;;;;;;21.77;16.73;;;11.10;99.90;;;;;;5022962;28;20032;-86
2023/04/22 07:33:32;;;;;;;20.42;16.05;;;11.20;99.90;;;;;;5020201;28;20041;-86
2023/04/22 07:35:59;;;;;;;20.98;16.33;;;11.30;99.90;;;;;;5016799;28;20029;-86
2023/04/22 07:38:26;;;;;;;20.38;13.65;;;11.30;99.90;;;;;;5022271;28;20034;-86
2023/04/22 07:40:53;;;;;;;24.23;19.60;;;11.40;99.90;;;;;;5004048;28;20070;-86
2023/04/22 07:43:19;;;;;;;25.92;20.20;;;11.40;99.90;;;;;;5022772;28;20070;-86
2023/04/22 07:45:45;;;;;;;27.27;19.15;;;11.50;99.90;;;;;;5017706;28;20175;-86
2023/04/22 07:48:16;;;;;;;25.20;20.55;;;11.60;99.90;;;;;;5004281;28;20037;-86
2023/04/22 07:50:42;;;;;;;24.70;19.17;;;11.70;99.90;;;;;;5019654;28;20058;-86
2023/04/22 07:53:16;;;;;;;30.70;24.08;;;11.90;99.90;;;;;;5018367;28;20510;-88
2023/04/22 07:55:43;;;;;;;26.70;22.10;;;11.90;99.90;;;;;;5016199;28;20029;-87
2023/04/22 07:58:09;;;;;;;21.05;17.58;;;11.90;99.90;;;;;;5015399;28;20049;-86
2023/04/22 08:00:35;;;;;;;23.90;18.83;;;11.90;99.90;;;;;;5019756;28;20121;-86
2023/04/22 08:03:03;;;;;;;19.38;15.85;;;12.00;99.90;;;;;;5014618;28;20037;-87
2023/04/22 08:05:29;;;;;;;19.35;16.60;;;12.00;99.90;;;;;;5013158;28;20148;-86
2023/04/22 08:07:55;;;;;;;20.85;16.40;;;12.10;99.90;;;;;;5019224;28;20091;-87
2023/04/22 08:10:20;;;;;;;19.33;15.05;;;12.20;99.90;;;;;;5014916;28;20030;-87
2023/04/22 08:12:47;;;;;;;18.48;14.68;;;12.30;99.90;;;;;;5019668;28;20067;-87
2023/04/22 08:15:17;;;;;;;20.70;16.83;;;12.40;99.90;;;;;;5015351;28;20076;-87
2023/04/22 08:17:46;;;;;;;18.80;15.35;;;12.50;99.90;;;;;;5018003;28;20083;-86
2023/04/22 08:20:14;;;;;;;18.73;14.90;;;12.60;99.90;;;;;;5018942;28;20022;-87
2023/04/22 08:22:41;;;;;;;17.83;14.30;;;12.60;99.90;;;;;;5017659;28;20104;-87
2023/04/22 08:25:09;;;;;;;16.50;13.63;;;12.70;99.90;;;;;;5014878;28;20061;-87
2023/04/22 08:27:38;;;;;;;15.10;12.00;;;12.80;99.90;;;;;;5015379;28;20029;-87
2023/04/22 08:30:05;;;;;;;12.80;10.60;;;12.90;99.90;;;;;;5003862;28;20030;-87
2023/04/22 08:32:31;;;;;;;14.20;11.05;;;13.00;99.90;;;;;;5014478;28;20540;-87
2023/04/22 08:34:59;;;;;;;13.05;10.30;;;13.20;99.90;;;;;;5018739;28;20039;-87
2023/04/22 08:37:28;;;;;;;13.73;10.48;;;13.30;99.90;;;;;;5015354;28;20026;-88
2023/04/22 08:39:56;;;;;;;14.45;10.25;;;13.40;99.90;;;;;;5014262;28;20083;-87
2023/04/22 08:42:22;;;;;;;10.77;8.85;;;13.50;99.90;;;;;;5014878;28;20576;-86
2023/04/22 08:44:48;;;;;;;14.00;10.63;;;13.60;99.90;;;;;;5014844;28;20039;-87
2023/04/22 08:47:15;;;;;;;12.60;10.00;;;13.60;99.90;;;;;;5015460;28;20084;-86
2023/04/22 08:49:45;;;;;;;11.02;8.27;;;13.70;99.90;;;;;;5015888;28;20482;-86
2023/04/22 08:52:14;;;;;;;10.38;8.57;;;13.80;99.90;;;;;;5019049;28;20075;-88
2023/04/22 08:54:41;;;;;;;10.68;8.73;;;13.90;99.90;;;;;;4999890;28;20156;-87
2023/04/22 08:57:11;;;;;;;10.38;8.70;;;14.00;99.90;;;;;;5017434;28;20040;-87
2023/04/22 08:59:37;;;;;;;11.20;8.82;;;14.00;99.90;;;;;;5018093;28;20021;-88
2023/04/22 09:02:04;;;;;;;12.27;9.50;;;14.10;99.90;;;;;;5011214;28;20037;-86
2023/04/22 09:04:30;;;;;;;12.07;8.98;;;14.10;99.90;;;;;;5015049;28;20674;-86
2023/04/22 09:06:56;;;;;;;10.95;8.88;;;14.20;99.90;;;;;;5015177;28;20033;-86
2023/04/22 09:09:23;;;;;;;10.65;8.95;;;14.40;99.90;;;;;;5012658;28;20109;-86
2023/04/22 09:11:49;;;;;;;10.20;7.68;;;14.70;99.90;;;;;;5016290;28;20064;-86
2023/04/22 09:14:16;;;;;;;8.63;7.53;;;14.80;99.90;;;;;;5019568;28;20035;-86
2023/04/22 09:16:46;;;;;;;9.13;7.35;;;14.90;99.90;;;;;;5021125;28;20120;-86
2023/04/22 09:19:13;;;;;;;9.40;7.38;;;15.00;99.90;;;;;;5017629;28;20513;-86
2023/04/22 09:21:40;;;;;;;8.75;7.30;;;15.10;99.90;;;;;;5018084;28;20056;-86
2023/04/22 09:24:10;;;;;;;8.35;6.47;;;15.20;99.90;;;;;;5015550;28;20045;-86
2023/04/22 09:26:41;;;;;;;8.23;5.95;;;15.30;99.90;;;;;;5017105;28;20571;-86
2023/04/22 09:29:11;;;;;;;9.55;7.60;;;15.40;99.90;;;;;;5014704;28;20026;-86
2023/04/22 09:31:39;;;;;;;9.93;8.73;;;15.50;99.90;;;;;;5015556;28;21066;-87
2023/04/22 09:34:06;;;;;;;9.90;8.43;;;15.60;99.90;;;;;;5020445;28;20027;-86
2023/04/22 09:36:33;;;;;;;10.57;7.57;;;15.70;99.90;;;;;;5017675;28;20038;-87
2023/04/22 09:39:06;;;;;;;6.95;5.72;;;16.30;99.90;;;;;;5017934;28;20032;-87
2023/04/22 09:41:33;;;;;;;6.43;5.40;;;17.20;99.90;;;;;;5001636;28;20111;-86
2023/04/22 09:44:00;;;;;;;6.47;4.65;;;18.10;99.90;;;;;;5016336;28;20088;-87
2023/04/22 09:46:29;;;;;;;7.13;4.68;;;18.90;99.90;;;;;;5017203;28;20082;-85
2023/04/22 09:48:55;;;;;;;7.28;5.30;;;19.50;99.90;;;;;;5018902;28;20124;-85
2023/04/22 09:51:23;;;;;;;7.03;5.28;;;19.90;99.90;;;;;;5017268;28;20026;-85
2023/04/22 09:54:09;;;;;;;6.70;5.82;;;20.10;99.90;;;;;;5016476;28;20084;-87
2023/04/22 09:57:01;;;;;;;6.50;5.43;;;20.00;99.90;;;;;;5015779;28;20335;-86
2023/04/22 09:59:30;;;;;;;6.97;5.70;;;19.80;99.90;;;;;;5026474;28;20034;-85
2023/04/22 10:01:59;;;;;;;6.75;5.38;;;19.70;99.90;;;;;;5016174;28;20506;-86
2023/04/22 10:04:26;;;;;;;8.75;6.32;;;19.50;99.90;;;;;;5019430;28;20112;-86
2023/04/22 10:06:55;;;;;;;7.88;6.22;;;19.40;99.90;;;;;;5021084;28;20033;-86
2023/04/22 10:09:28;;;;;;;7.50;5.70;;;19.00;99.90;;;;;;5022002;28;20026;-85
2023/04/22 10:11:56;;;;;;;5.75;4.72;;;19.00;99.90;;;;;;5016021;28;20045;-85
2023/04/22 10:14:29;;;;;;;5.45;4.38;;;19.10;99.90;;;;;;5016865;28;20033;-85
2023/04/22 10:17:06;;;;;;;7.60;6.05;;;19.40;99.90;;;;;;5017106;28;20131;-85
2023/04/22 10:19:36;;;;;;;6.85;5.40;;;19.80;99.90;;;;;;5017271;28;20037;-85
2023/04/22 10:22:09;;;;;;;9.68;7.43;;;20.00;99.90;;;;;;5017881;28;20124;-86
2023/04/22 10:24:36;;;;;;;6.38;5.20;;;20.40;99.90;;;;;;5016964;28;20475;-85
2023/04/22 10:27:09;;;;;;;7.32;6.47;;;20.80;99.90;;;;;;5014540;28;20052;-86
2023/04/22 10:29:41;;;;;;;6.28;5.13;;;20.70;99.90;;;;;;5021499;28;20021;-86
2023/04/22 10:32:32;;;;;;;7.60;6.55;;;20.80;99.90;;;;;;5019514;28;20030;-86
2023/04/22 10:35:16;;;;;;;7.78;6.82;;;21.10;99.90;;;;;;5022072;28;20029;-87
2023/04/22 10:37:44;;;;;;;7.95;6.32;;;21.40;99.90;;;;;;5018387;28;20026;-86
2023/04/22 10:40:21;;;;;;;7.35;5.55;;;21.60;99.90;;;;;;5022617;28;20029;-86
2023/04/22 10:42:52;;;;;;;6.95;5.78;;;21.80;99.90;;;;;;5015659;28;20037;-86
2023/04/22 10:45:31;;;;;;;5.18;4.60;;;22.30;99.90;;;;;;5015890;28;20483;-86
2023/04/22 10:48:12;;;;;;;6.72;5.53;;;22.60;99.90;;;;;;5020956;28;20083;-86
2023/04/22 10:50:47;;;;;;;6.03;4.93;;;22.60;99.90;;;;;;5017956;28;20022;-85
2023/04/22 10:53:41;;;;;;;4.90;4.18;;;22.40;99.90;;;;;;5017779;28;20051;-85
2023/04/22 10:56:19;;;;;;;6.40;4.20;;;22.30;99.90;;;;;;5014907;28;20034;-85
2023/04/22 10:58:47;;;;;;;8.27;5.13;;;22.60;99.90;;;;;;5017959;28;20026;-86
2023/04/22 11:01:15;;;;;;;7.10;5.45;;;22.90;99.90;;;;;;5029097;28;20037;-87
2023/04/22 11:03:44;;;;;;;6.85;4.78;;;22.70;99.90;;;;;;5020939;28;20055;-85
2023/04/22 11:06:28;;;;;;;6.90;5.25;;;22.30;99.90;;;;;;5017354;28;20116;-87
2023/04/22 11:09:17;;;;;;;6.68;5.43;;;22.60;99.90;;;;;;5017939;28;20053;-85
2023/04/22 11:11:43;;;;;;;6.38;4.80;;;22.80;99.90;;;;;;5015815;28;20064;-85
2023/04/22 11:14:10;;;;;;;6.57;5.20;;;22.10;99.90;;;;;;5013686;28;20166;-85
2023/04/22 11:16:39;;;;;;;6.25;4.40;;;21.40;99.90;;;;;;5015138;28;20084;-84
2023/04/22 11:19:14;;;;;;;5.35;4.50;;;20.80;99.90;;;;;;5016281;28;20045;-83
2023/04/22 11:21:45;;;;;;;7.00;4.55;;;20.30;99.90;;;;;;5020557;28;20026;-83
2023/04/22 11:24:28;;;;;;;6.65;5.00;;;20.00;99.90;;;;;;5016953;28;20513;-84
2023/04/22 11:26:55;;;;;;;;;;;19.80;99.90;;;;;;5014304;28;20944;-83
2023/04/22 11:29:28;;;;;;;5.90;4.60;;;19.70;99.90;;;;;;5007570;28;19912;-84
2023/04/22 11:32:03;;;;;;;;;;;19.90;99.90;;;;;;5014438;28;20871;-83
2023/04/22 11:34:38;;;;;;;5.95;4.68;;;19.90;99.90;;;;;;5019112;28;20379;-84
2023/04/22 11:37:07;;;;;;;6.63;4.80;;;20.10;99.90;;;;;;5012779;28;20441;-83
2023/04/22 11:39:46;;;;;;;7.90;4.70;;;20.20;99.90;;;;;;5014633;28;20064;-82
2023/04/22 11:42:24;;;;;;;6.43;4.68;;;20.00;99.90;;;;;;5015159;28;20528;-83
2023/04/22 11:44:55;;;;;;;6.88;5.18;;;19.80;99.90;;;;;;5014346;28;20122;-83
2023/04/22 11:47:35;;;;;;;8.52;4.85;;;19.60;99.90;;;;;;5017531;28;20034;-83
2023/04/22 11:50:08;;;;;;;6.47;4.43;;;19.40;99.90;;;;;;5014148;28;20493;-83
2023/04/22 11:52:51;;;;;;;8.50;4.50;;;19.20;99.90;;;;;;5013664;28;20029;-82
2023/04/22 11:55:26;;;;;;;9.60;4.43;;;19.10;99.90;;;;;;5013385;28;20033;-82
2023/04/22 11:58:07;;;;;;;5.57;4.30;;;18.90;99.90;;;;;;5019788;28;20547;-82
2023/04/22 12:01:02;;;;;;;5.40;3.63;;;18.80;99.90;;;;;;5016629;28;20026;-83
2023/04/22 12:03:29;;;;;;;5.88;4.00;;;18.70;99.90;;;;;;5013341;28;20021;-81
2023/04/22 12:05:59;;;;;;;5.28;4.20;;;18.60;99.90;;;;;;5016348;28;20041;-83
2023/04/22 12:08:46;;;;;;;5.43;3.95;;;18.50;99.90;;;;;;5015927;28;20382;-85
2023/04/22 12:11:26;;;;;;;6.57;4.68;;;18.40;99.90;;;;;;5012514;28;20393;-84
2023/04/22 12:14:13;;;;;;;7.05;5.45;;;18.40;99.90;;;;;;5018532;28;20112;-83
2023/04/22 12:16:41;;;;;;;6.00;5.07;;;18.20;99.90;;;;;;5013180;28;20038;-84
2023/04/22 12:19:16;;;;;;;6.82;5.18;;;17.80;99.90;;;;;;5020281;28;20083;-84
2023/04/22 12:21:48;;;;;;;6.43;5.00;;;17.60;99.90;;;;;;5016542;28;20070;-83
2023/04/22 12:24:29;;;;;;;5.40;4.70;;;17.40;99.90;;;;;;5014174;28;20033;-84
2023/04/22 12:27:15;;;;;;;5.40;4.18;;;17.40;99.90;;;;;;5010801;28;20160;-84
2023/04/22 12:29:58;;;;;;;15.05;5.18;;;17.40;99.90;;;;;;5016153;28;20078;-84
2023/04/22 12:32:25;;;;;;;11.90;5.00;;;17.50;99.90;;;;;;5013966;28;20071;-83
2023/04/22 12:34:53;;;;;;;6.35;4.80;;;17.50;99.90;;;;;;5015036;28;20034;-84
2023/04/22 12:37:22;;;;;;;7.13;4.07;;;17.50;99.90;;;;;;5013037;28;20426;-83
2023/04/22 12:39:54;;;;;;;6.75;4.88;;;17.60;99.90;;;;;;5019163;28;20394;-83
2023/04/22 12:42:24;;;;;;;6.50;5.00;;;17.60;99.90;;;;;;5008102;28;20455;-85
2023/04/22 12:44:54;;;;;;;5.80;4.45;;;17.70;99.90;;;;;;5012467;28;20033;-84
2023/04/22 12:47:24;;;;;;;5.03;4.35;;;17.80;99.90;;;;;;5018649;28;20033;-85
2023/04/22 12:49:54;;;;;;;6.13;4.22;;;17.80;99.90;;;;;;5005116;28;20021;-83